createdAt,value
2018-12-08T00:00:54.700Z,98276.70
2018-12-08T00:03:22.200Z,98274.62
2018-12-08T00:05:49.711Z,98273.31
2018-12-08T00:08:17.179Z,98268.98
2018-12-08T00:10:44.723Z,98266.73
2018-12-08T00:13:12.192Z,98261.84
2018-12-08T00:15:39.695Z,98261.84
2018-12-08T00:18:07.445Z,98256.11
2018-12-08T00:20:34.979Z,98260.91
2018-12-08T00:23:02.545Z,98257.71
2018-12-08T00:25:30.160Z,98258.94
2018-12-08T00:27:57.640Z,98255.84
2018-12-08T00:30:36.989Z,98251.33
2018-12-08T00:33:04.483Z,98246.81
2018-12-08T00:35:32.001Z,98244.00
2018-12-08T00:37:59.480Z,98246.50
2018-12-08T00:40:27.129Z,98244.16
2018-12-08T00:42:54.612Z,98250.64
2018-12-08T00:45:22.153Z,98242.65
2018-12-08T00:47:49.646Z,98252.62
2018-12-08T00:50:17.320Z,98257.32
2018-12-08T00:52:45.079Z,98260.80
2018-12-08T00:55:12.554Z,98267.86
2018-12-08T00:57:40.068Z,98262.69
2018-12-08T01:00:07.632Z,98268.04
2018-12-08T01:02:35.218Z,98273.02
2018-12-08T01:05:02.695Z,98272.64
2018-12-08T01:07:30.281Z,98270.95
2018-12-08T01:09:57.783Z,98272.64
2018-12-08T01:12:25.373Z,98268.31
2018-12-08T01:14:52.957Z,98264.28
2018-12-08T01:17:20.432Z,98267.28
2018-12-08T01:19:47.936Z,98269.45
2018-12-08T01:22:21.333Z,98264.28
2018-12-08T01:24:48.827Z,98268.23
2018-12-08T01:27:16.493Z,98269.55
2018-12-08T01:29:43.971Z,98272.17
2018-12-08T01:32:11.448Z,98269.16
2018-12-08T01:34:38.956Z,98266.16
2018-12-08T01:37:06.431Z,98253.55
2018-12-08T01:39:34.355Z,98254.02
2018-12-08T01:42:02.002Z,98253.30
2018-12-08T01:44:30.564Z,98243.34
2018-12-08T01:46:58.076Z,98242.58
2018-12-08T01:49:25.556Z,98236.47
2018-12-08T01:51:53.172Z,98228.76
2018-12-08T01:54:20.695Z,98227.06
2018-12-08T01:56:48.221Z,98214.19
2018-12-08T01:59:15.739Z,98223.68
2018-12-08T02:01:43.261Z,98219.36
2018-12-08T02:04:10.799Z,98210.33
2018-12-08T02:06:38.287Z,98209.23
2018-12-08T02:09:08.103Z,98218.63
2018-12-08T02:11:35.759Z,98221.03
2018-12-08T02:14:03.439Z,98232.59
2018-12-08T02:16:31.059Z,98228.36
2018-12-08T02:18:58.658Z,98239.47
2018-12-08T02:21:26.325Z,98232.52
2018-12-08T02:23:53.805Z,98235.70
2018-12-08T02:26:21.284Z,98229.13
2018-12-08T02:28:48.880Z,98220.48
2018-12-08T02:31:16.369Z,98222.73
2018-12-08T02:33:43.951Z,98220.11
2018-12-08T02:36:11.484Z,98228.18
2018-12-08T02:38:39.013Z,98228.18
2018-12-08T02:41:07.692Z,98235.78
2018-12-08T02:43:35.196Z,98239.82
2018-12-08T02:46:02.692Z,98239.82
2018-12-08T02:48:30.195Z,98249.12
2018-12-08T02:50:57.672Z,98260.48
2018-12-08T02:53:25.383Z,98267.91
2018-12-08T02:55:52.860Z,98272.23
2018-12-08T02:58:20.627Z,98285.21
2018-12-08T03:00:48.137Z,98286.81
2018-12-08T03:03:15.615Z,98291.72
2018-12-08T03:05:43.225Z,98290.95
2018-12-08T03:08:10.701Z,98302.28
2018-12-08T03:10:38.254Z,98305.75
2018-12-08T03:13:07.581Z,98297.95
2018-12-08T03:15:36.191Z,98289.95
2018-12-08T03:18:04.002Z,98288.75
2018-12-08T03:20:31.470Z,98285.81
2018-12-08T03:22:59.950Z,98289.29
2018-12-08T03:25:28.796Z,98286.12
2018-12-08T03:27:56.547Z,98304.55
2018-12-08T03:30:27.904Z,98310.36
2018-12-08T03:32:55.475Z,98322.09
2018-12-08T03:35:30.007Z,98317.86
2018-12-08T03:37:58.855Z,98319.87
2018-12-08T03:40:26.414Z,98315.07
2018-12-08T03:42:54.228Z,98324.64
2018-12-08T03:45:21.823Z,98325.11
2018-12-08T03:47:49.327Z,98330.48
2018-12-08T03:50:17.444Z,98342.33
2018-12-08T03:52:44.947Z,98350.89
2018-12-08T03:55:12.825Z,98367.16
2018-12-08T03:57:40.311Z,98370.36
2018-12-08T04:00:09.102Z,98381.66
2018-12-08T04:02:36.613Z,98413.27
2018-12-08T04:05:04.695Z,98409.86
2018-12-08T04:07:32.358Z,98399.25
2018-12-08T04:10:00.137Z,98417.22
2018-12-08T04:12:27.610Z,98403.45
2018-12-08T04:14:55.145Z,98433.66
2018-12-08T04:17:22.623Z,98471.91
2018-12-08T04:19:50.152Z,98431.73
2018-12-08T04:22:17.641Z,98463.08
2018-12-08T04:24:45.255Z,98463.54
2018-12-08T04:27:12.739Z,98464.95
2018-12-08T04:29:40.236Z,98479.25
2018-12-08T04:34:42.825Z,98493.70
2018-12-08T04:37:10.485Z,98556.96
2018-12-08T04:39:37.961Z,98541.34
2018-12-08T04:42:05.419Z,98564.08
2018-12-08T04:44:32.933Z,98547.70
2018-12-08T04:47:00.396Z,98567.41
2018-12-08T04:49:27.953Z,98558.23
2018-12-08T04:51:55.423Z,98597.42
2018-12-08T04:54:23.071Z,98560.16
2018-12-08T04:56:50.531Z,98572.31
2018-12-08T04:59:17.991Z,98600.52
2018-12-08T05:01:45.489Z,98583.27
2018-12-08T05:04:12.975Z,98603.62
2018-12-08T05:06:40.482Z,98584.28
2018-12-08T05:09:07.971Z,98587.84
2018-12-08T05:11:35.482Z,98601.38
2018-12-08T05:14:03.024Z,98601.15
2018-12-08T05:16:30.487Z,98624.05
2018-12-08T05:18:59.124Z,98620.64
2018-12-08T05:21:26.597Z,98628.87
2018-12-08T05:23:54.061Z,98658.10
2018-12-08T05:26:21.556Z,98652.07
2018-12-08T05:28:49.015Z,98675.22
2018-12-08T05:31:16.752Z,98670.81
2018-12-08T05:33:44.229Z,98653.10
2018-12-08T05:36:11.696Z,98652.95
2018-12-08T05:38:39.236Z,98671.14
2018-12-08T05:41:06.695Z,98679.17
2018-12-08T05:43:34.194Z,98678.17
2018-12-08T05:46:01.721Z,98692.38
2018-12-08T05:48:29.243Z,98687.28
2018-12-08T05:50:56.723Z,98695.23
2018-12-08T05:53:24.183Z,98713.31
2018-12-08T05:55:51.691Z,98717.40
2018-12-08T05:58:19.166Z,98718.89
2018-12-08T06:00:47.705Z,98704.73
2018-12-08T06:03:15.191Z,98715.92
2018-12-08T06:05:42.651Z,98735.02
2018-12-08T06:08:10.163Z,98724.58
2018-12-08T06:10:37.670Z,98735.16
2018-12-08T06:13:05.215Z,98740.95
2018-12-08T06:15:32.871Z,98763.80
2018-12-08T06:18:00.355Z,98761.78
2018-12-08T06:20:27.855Z,98766.87
2018-12-08T06:22:55.335Z,98783.38
2018-12-08T06:25:25.537Z,98787.19
2018-12-08T06:28:01.877Z,98802.09
2018-12-08T06:30:29.386Z,98786.27
2018-12-08T06:32:56.875Z,98807.80
2018-12-08T06:35:24.393Z,98803.02
2018-12-08T06:37:51.902Z,98816.05
2018-12-08T06:40:19.414Z,98822.22
2018-12-08T06:42:46.940Z,98822.74
2018-12-08T06:45:14.413Z,98830.36
2018-12-08T06:47:41.902Z,98822.52
2018-12-08T06:50:09.429Z,98830.27
2018-12-08T06:52:36.919Z,98835.22
2018-12-08T06:55:04.451Z,98840.53
2018-12-08T06:57:31.924Z,98857.58
2018-12-08T06:59:59.391Z,98842.59
2018-12-08T07:02:26.976Z,98852.96
2018-12-08T07:04:54.486Z,98874.61
2018-12-08T07:07:22.039Z,98859.26
2018-12-08T07:09:49.503Z,98886.02
2018-12-08T07:12:16.995Z,98880.91
2018-12-08T07:14:45.495Z,98887.73
2018-12-08T07:17:13.098Z,98883.53
2018-12-08T07:19:40.572Z,98898.95
2018-12-08T07:22:08.071Z,98900.72
2018-12-08T07:24:35.599Z,98883.27
2018-12-08T07:27:03.064Z,98884.38
2018-12-08T07:29:30.579Z,98897.69
2018-12-08T07:31:58.047Z,98879.95
2018-12-08T07:34:25.858Z,98885.26
2018-12-08T07:36:53.444Z,98885.26
2018-12-08T07:39:20.924Z,98878.17
2018-12-08T07:41:48.539Z,98879.33
2018-12-08T07:44:16.100Z,98864.83
2018-12-08T07:46:43.739Z,98872.86
2018-12-08T07:49:11.209Z,98868.59
2018-12-08T07:51:38.747Z,98874.43
2018-12-08T07:54:06.242Z,98856.13
2018-12-08T07:56:33.828Z,98891.88
2018-12-08T07:59:01.479Z,98878.17
2018-12-08T08:01:31.007Z,98875.48
2018-12-08T08:03:58.465Z,98880.45
2018-12-08T08:06:26.080Z,98892.65
2018-12-08T08:08:53.559Z,98889.38
2018-12-08T08:11:21.079Z,98912.41
2018-12-08T08:13:48.547Z,98895.64
2018-12-08T08:16:16.077Z,98913.20
2018-12-08T08:18:43.625Z,98906.70
2018-12-08T08:21:11.300Z,98896.85
2018-12-08T08:23:38.780Z,98908.27
2018-12-08T08:26:06.265Z,98937.32
2018-12-08T08:28:33.901Z,98908.85
2018-12-08T08:31:01.424Z,98918.49
2018-12-08T08:33:29.032Z,98917.45
2018-12-08T08:35:56.664Z,98920.93
2018-12-08T08:38:24.187Z,98917.27
2018-12-08T08:40:51.664Z,98912.18
2018-12-08T08:43:19.144Z,98916.65
2018-12-08T08:45:46.850Z,98924.33
2018-12-08T08:48:14.341Z,98917.21
2018-12-08T08:50:41.825Z,98926.80
2018-12-08T08:53:09.440Z,98915.64
2018-12-08T08:55:36.913Z,98910.52
2018-12-08T08:58:04.418Z,98926.60
2018-12-08T09:00:31.884Z,98921.02
2018-12-08T09:02:59.399Z,98922.80
2018-12-08T09:05:26.933Z,98913.61
2018-12-08T09:07:54.548Z,98903.69
2018-12-08T09:10:22.046Z,98915.05
2018-12-08T09:12:49.543Z,98914.06
2018-12-08T09:15:17.049Z,98905.79
2018-12-08T09:17:44.686Z,98915.44
2018-12-08T09:20:12.428Z,98910.65
2018-12-08T09:22:39.895Z,98909.80
2018-12-08T09:25:08.109Z,98902.77
2018-12-08T09:27:35.763Z,98906.64
2018-12-08T09:30:05.167Z,98906.12
2018-12-08T09:32:32.679Z,98907.27
2018-12-08T09:35:00.156Z,98908.05
2018-12-08T09:37:27.674Z,98904.05
2018-12-08T09:39:57.087Z,98902.99
2018-12-08T09:42:24.719Z,98903.64
2018-12-08T09:44:52.398Z,98895.46
2018-12-08T09:47:19.928Z,98889.02
2018-12-08T09:49:47.475Z,98900.86
2018-12-08T09:52:14.970Z,98884.75
2018-12-08T09:54:42.659Z,98884.47
2018-12-08T09:57:10.173Z,98878.28
2018-12-08T09:59:37.702Z,98893.89
2018-12-08T10:02:06.136Z,98884.94
2018-12-08T10:04:33.608Z,98879.93
2018-12-08T10:07:01.406Z,98884.19
2018-12-08T10:09:28.895Z,98875.70
2018-12-08T10:11:56.420Z,98865.94
2018-12-08T10:14:24.001Z,98870.80
2018-12-08T10:16:51.478Z,98865.72
2018-12-08T10:19:19.331Z,98857.45
2018-12-08T10:21:46.810Z,98864.94
2018-12-08T10:24:14.283Z,98864.09
2018-12-08T10:26:41.824Z,98860.28
2018-12-08T10:29:09.448Z,98851.23
2018-12-08T10:31:37.076Z,98847.82
2018-12-08T10:34:04.539Z,98842.87
2018-12-08T10:36:32.000Z,98841.98
2018-12-08T10:38:59.512Z,98833.57
2018-12-08T10:41:27.080Z,98835.63
2018-12-08T10:43:54.607Z,98832.14
2018-12-08T10:46:22.198Z,98833.84
2018-12-08T10:48:49.903Z,98813.55
2018-12-08T10:51:17.371Z,98822.25
2018-12-08T10:53:44.846Z,98804.37
2018-12-08T10:56:12.353Z,98798.83
2018-12-08T10:58:39.868Z,98809.59
2018-12-08T11:01:09.439Z,98804.01
2018-12-08T11:03:46.147Z,98806.20
2018-12-08T11:06:14.226Z,98797.76
2018-12-08T11:08:41.782Z,98813.38
2018-12-08T11:11:09.259Z,98791.25
2018-12-08T11:13:36.805Z,98783.05
2018-12-08T11:16:04.361Z,98788.16
2018-12-08T11:18:31.963Z,98776.21
2018-12-08T11:20:59.452Z,98791.77
2018-12-08T11:23:28.052Z,98780.94
2018-12-08T11:25:55.683Z,98787.56
2018-12-08T11:28:23.258Z,98786.54
2018-12-08T11:30:50.983Z,98787.58
2018-12-08T11:33:18.484Z,98780.13
2018-12-08T11:35:45.980Z,98772.78
2018-12-08T11:38:15.512Z,98774.08
2018-12-08T11:40:43.029Z,98772.53
2018-12-08T11:43:11.628Z,98779.96
2018-12-08T11:45:39.154Z,98776.75
2018-12-08T11:48:06.837Z,98776.80
2018-12-08T11:50:34.435Z,98770.93
2018-12-08T11:53:01.958Z,98775.13
2018-12-08T11:55:30.341Z,98766.30
2018-12-08T11:57:58.304Z,98763.48
2018-12-08T12:00:27.674Z,98757.68
2018-12-08T12:02:55.932Z,98756.16
2018-12-08T12:05:23.719Z,98758.41
2018-12-08T12:07:51.295Z,98747.06
2018-12-08T12:10:18.811Z,98756.94
2018-12-08T12:12:46.310Z,98742.20
2018-12-08T12:15:13.840Z,98741.91
2018-12-08T12:17:41.407Z,98735.44
2018-12-08T12:20:08.986Z,98725.27
2018-12-08T12:22:36.631Z,98729.69
2018-12-08T12:25:05.801Z,98729.84
2018-12-08T12:27:33.357Z,98725.34
2018-12-08T12:30:00.920Z,98738.70
2018-12-08T12:32:28.462Z,98726.52
2018-12-08T12:34:55.922Z,98722.92
2018-12-08T12:37:23.394Z,98726.95
2018-12-08T12:39:50.900Z,98726.78
2018-12-08T12:42:18.411Z,98721.27
2018-12-08T12:44:45.917Z,98722.70
2018-12-08T12:47:13.392Z,98719.17
2018-12-08T12:49:40.920Z,98710.22
2018-12-08T12:52:08.602Z,98718.55
2018-12-08T12:54:37.203Z,98723.01
2018-12-08T12:57:04.757Z,98716.55
2018-12-08T12:59:32.241Z,98714.33
2018-12-08T13:01:59.756Z,98714.26
2018-12-08T13:04:27.249Z,98715.51
2018-12-08T13:07:15.075Z,98716.14
2018-12-08T13:09:55.952Z,98716.14
2018-12-08T13:12:30.604Z,98716.14
2018-12-08T13:15:02.355Z,98716.14
2018-12-08T13:17:34.195Z,98716.14
2018-12-08T13:20:06.376Z,98716.14
2018-12-08T13:22:37.809Z,98716.14
2018-12-08T13:25:21.735Z,98716.14
2018-12-08T13:27:53.307Z,98716.14
2018-12-08T13:37:14.188Z,98716.14
2018-12-08T13:39:44.688Z,98716.14
2018-12-08T13:42:15.073Z,98716.14
2018-12-08T13:44:45.620Z,98716.14
2018-12-08T13:47:16.000Z,98716.14
2018-12-08T13:49:46.552Z,98716.14
2018-12-08T13:52:16.980Z,98716.14
2018-12-08T13:54:47.751Z,98716.14
2018-12-08T13:57:19.035Z,98716.14
2018-12-08T13:59:51.196Z,98716.14
2018-12-08T14:02:21.750Z,98716.14
2018-12-08T14:04:52.229Z,98716.14
2018-12-08T14:07:22.387Z,98716.14
2018-12-08T14:09:52.489Z,98716.14
2018-12-08T14:12:22.288Z,98716.14
2018-12-08T14:14:51.908Z,98716.14
2018-12-08T14:17:21.778Z,98716.14
2018-12-08T14:19:51.727Z,98716.14
2018-12-08T14:22:21.620Z,98716.14
2018-12-08T14:24:51.556Z,98716.14
2018-12-08T14:27:21.472Z,98716.14
2018-12-08T14:29:51.391Z,98716.14
2018-12-08T14:32:21.283Z,98716.14
2018-12-08T14:34:51.118Z,98716.14
2018-12-08T14:37:21.071Z,98716.14
2018-12-08T14:39:51.383Z,98716.14
2018-12-08T14:42:21.489Z,98716.14
2018-12-08T14:44:51.691Z,98716.14
2018-12-08T14:47:21.544Z,98716.14
2018-12-08T14:49:51.327Z,98716.14
2018-12-08T14:52:21.266Z,98716.14
2018-12-08T14:54:51.167Z,98716.14
2018-12-08T14:57:20.911Z,98716.14
2018-12-08T14:59:50.680Z,98716.14
2018-12-08T15:02:20.504Z,98716.14
2018-12-08T15:04:50.293Z,98716.14
2018-12-08T15:07:20.016Z,98716.14
2018-12-08T15:09:49.758Z,98716.14
2018-12-08T15:12:20.586Z,98716.14
2018-12-08T15:14:50.541Z,98716.14
2018-12-08T15:17:20.215Z,98716.14
2018-12-08T15:19:49.891Z,98716.14
2018-12-08T15:22:19.589Z,98716.14
2018-12-08T15:24:49.136Z,98716.14
2018-12-08T15:27:18.897Z,98716.14
2018-12-08T15:29:48.362Z,98716.14
2018-12-08T15:32:17.733Z,98716.14
2018-12-08T15:34:47.108Z,98716.14
2018-12-08T15:37:16.440Z,98716.14
2018-12-08T15:39:45.829Z,98716.14
2018-12-08T15:42:15.113Z,98716.14
2018-12-08T15:44:44.410Z,98716.14
2018-12-08T15:47:13.635Z,98716.14
2018-12-08T15:49:44.061Z,98716.14
2018-12-08T15:52:13.188Z,98716.14
2018-12-08T15:54:42.289Z,98716.14
2018-12-08T15:57:12.493Z,98716.14
2018-12-08T15:59:42.594Z,98716.14
2018-12-08T16:02:11.739Z,98716.14
2018-12-08T16:04:40.933Z,98716.14
2018-12-08T16:07:10.158Z,98716.14
2018-12-08T16:09:39.375Z,98716.14
2018-12-08T16:12:08.740Z,98716.14
2018-12-08T16:14:37.915Z,98716.14
2018-12-08T16:17:07.183Z,98716.14
2018-12-08T16:19:37.519Z,98716.14
2018-12-08T16:22:07.781Z,98716.14
2018-12-08T16:24:37.116Z,98716.14
2018-12-08T16:27:06.283Z,98716.14
2018-12-08T16:29:35.448Z,98716.14
2018-12-08T16:32:04.659Z,98716.14
2018-12-08T16:34:33.900Z,98716.14
2018-12-08T16:37:03.409Z,98716.14
2018-12-08T16:39:32.577Z,98716.14
2018-12-08T16:42:01.743Z,98716.14
2018-12-08T16:44:30.949Z,98716.14
2018-12-08T16:47:00.120Z,98716.14
2018-12-08T16:49:29.428Z,98716.14
2018-12-08T16:51:58.571Z,98716.14
2018-12-08T16:54:28.673Z,98716.14
2018-12-08T16:56:57.773Z,98716.14
2018-12-08T16:59:26.871Z,98716.14
2018-12-08T17:01:56.139Z,98716.14
2018-12-08T17:04:25.199Z,98716.14
2018-12-08T17:06:54.279Z,98716.14
2018-12-08T17:09:23.325Z,98716.14
2018-12-08T17:11:53.338Z,98716.14
2018-12-08T17:14:22.523Z,98716.14
2018-12-08T17:16:51.551Z,98716.14
2018-12-08T17:19:20.574Z,98716.14
2018-12-08T17:21:49.591Z,98716.14
2018-12-08T17:24:18.530Z,98716.14
2018-12-08T17:26:47.547Z,98716.14
2018-12-08T17:29:16.565Z,98716.14
2018-12-08T17:31:45.587Z,98716.14
2018-12-08T17:34:14.651Z,98716.14
2018-12-08T17:36:43.774Z,98716.14
2018-12-08T17:39:12.951Z,98716.14
2018-12-08T17:41:41.961Z,98716.14
2018-12-08T17:44:11.090Z,98716.14
2018-12-08T17:46:40.141Z,98716.14
2018-12-08T17:49:09.255Z,98716.14
2018-12-08T17:51:38.522Z,98716.14
2018-12-08T17:54:07.955Z,98716.14
2018-12-08T17:56:37.161Z,98716.14
2018-12-08T17:59:06.326Z,98716.14
2018-12-08T18:01:35.469Z,98716.14
2018-12-08T18:04:04.771Z,98716.14
2018-12-08T18:06:34.811Z,98716.14
2018-12-08T18:09:07.105Z,98716.14
2018-12-08T18:11:36.568Z,98716.14
2018-12-08T18:14:05.541Z,98716.14
2018-12-08T18:16:34.561Z,98716.14
2018-12-08T18:19:03.571Z,98716.14
2018-12-08T18:21:32.764Z,98716.14
2018-12-08T18:24:02.103Z,98716.14
2018-12-08T18:26:31.083Z,98716.14
2018-12-08T18:29:00.201Z,98716.14
2018-12-08T18:31:29.215Z,98716.14
2018-12-08T18:33:58.208Z,98716.14
2018-12-08T18:36:27.292Z,98716.14
2018-12-08T18:38:56.266Z,98716.14
2018-12-08T18:41:25.267Z,98716.14
2018-12-08T18:43:54.311Z,98716.14
2018-12-08T18:46:24.272Z,98716.14
2018-12-08T18:48:53.573Z,98716.14
2018-12-08T18:51:22.565Z,98716.14
2018-12-08T18:53:51.590Z,98716.14
2018-12-08T18:56:20.640Z,98716.14
2018-12-08T18:58:53.454Z,98716.14
2018-12-08T19:01:22.541Z,98716.14
2018-12-08T19:03:51.607Z,98716.14
2018-12-08T19:06:20.664Z,98716.14
2018-12-08T19:08:49.851Z,98716.14
2018-12-08T19:11:19.958Z,98716.14
2018-12-08T19:13:49.175Z,98716.14
2018-12-08T19:16:18.276Z,98716.14
2018-12-08T19:18:47.356Z,98716.14
2018-12-08T19:21:16.431Z,98716.14
2018-12-08T19:23:45.484Z,98716.14
2018-12-08T19:26:14.536Z,98716.14
2018-12-08T19:28:43.622Z,98716.14
2018-12-08T19:31:13.852Z,98716.14
2018-12-08T19:33:42.930Z,98716.14
2018-12-08T19:36:12.043Z,98716.14
2018-12-08T19:38:41.183Z,98716.14
2018-12-08T19:41:10.285Z,98716.14
2018-12-08T19:43:39.705Z,98716.14
2018-12-08T19:46:08.832Z,98716.14
2018-12-08T19:48:38.010Z,98716.14
2018-12-08T19:51:07.227Z,98716.14
2018-12-08T19:53:36.434Z,98716.14
2018-12-08T19:56:05.605Z,98716.14
2018-12-08T19:58:34.783Z,98716.14
2018-12-08T20:01:04.068Z,98716.14
2018-12-08T20:03:33.432Z,98716.14
2018-12-08T20:06:02.633Z,98716.14
2018-12-08T20:08:31.834Z,98716.14
2018-12-08T20:11:01.089Z,98716.14
2018-12-08T20:13:30.240Z,98716.14
2018-12-08T20:15:59.845Z,98716.14
2018-12-08T20:18:28.998Z,98716.14
2018-12-08T20:20:58.124Z,98716.14
2018-12-08T20:23:27.307Z,98716.14
2018-12-08T20:25:56.504Z,98716.14
2018-12-08T20:28:25.770Z,98716.14
2018-12-08T20:30:54.919Z,98716.14
2018-12-08T20:33:24.787Z,98716.14
2018-12-08T20:35:53.899Z,98716.14
2018-12-08T20:38:23.101Z,98716.14
2018-12-08T20:40:52.277Z,98716.14
2018-12-08T20:43:21.412Z,98716.14
2018-12-08T20:45:50.684Z,98716.14
2018-12-08T20:48:19.783Z,98716.14
2018-12-08T20:50:48.852Z,98716.14
2018-12-08T20:53:17.921Z,98716.14
2018-12-08T20:55:47.012Z,98716.14
2018-12-08T20:58:17.074Z,98716.14
2018-12-08T21:00:46.156Z,98716.14
2018-12-08T21:03:15.295Z,98716.14
2018-12-08T21:05:44.334Z,98716.14
2018-12-08T21:08:13.494Z,98716.14
2018-12-08T21:10:43.568Z,98716.14
2018-12-08T21:13:12.546Z,98716.14
2018-12-08T21:15:41.568Z,98716.14
2018-12-08T21:18:10.604Z,98716.14
2018-12-08T21:20:39.813Z,98716.14
2018-12-08T21:23:09.704Z,98716.14
2018-12-08T21:25:38.645Z,98716.14
2018-12-08T21:28:07.672Z,98716.14
2018-12-08T21:30:37.536Z,98716.14
2018-12-08T21:33:06.515Z,98716.14
2018-12-08T21:35:35.444Z,98716.14
2018-12-08T21:38:04.537Z,98716.14
2018-12-08T21:40:33.495Z,98716.14
2018-12-08T21:43:02.439Z,98716.14
2018-12-08T21:45:31.423Z,98716.14
2018-12-08T21:48:00.355Z,98716.14
2018-12-08T21:50:29.403Z,98716.14
2018-12-08T21:52:58.321Z,98716.14
2018-12-08T21:55:27.243Z,98716.14
2018-12-08T21:57:56.191Z,98716.14
2018-12-08T22:00:25.130Z,98716.14
2018-12-08T22:02:54.318Z,98716.14
2018-12-08T22:05:23.289Z,98716.14
2018-12-08T22:07:52.248Z,98716.14
2018-12-08T22:10:21.225Z,98716.14
2018-12-08T22:12:50.175Z,98716.14
2018-12-08T22:15:19.139Z,98716.14
2018-12-08T22:17:48.084Z,98716.14
2018-12-08T22:20:17.056Z,98716.14
2018-12-08T22:22:45.988Z,98716.14
2018-12-08T22:25:14.945Z,98716.14
2018-12-08T22:27:43.873Z,98716.14
2018-12-08T22:30:12.802Z,98716.14
2018-12-08T22:32:41.782Z,98716.14
2018-12-08T22:35:10.742Z,98716.14
2018-12-08T22:37:39.856Z,98716.14
2018-12-08T22:40:09.151Z,98716.14
2018-12-08T22:42:38.140Z,98716.14
2018-12-08T22:45:07.202Z,98716.14
2018-12-08T22:47:36.151Z,98716.14
2018-12-08T22:50:06.040Z,98716.14
2018-12-08T22:52:35.191Z,98716.14
2018-12-08T22:55:04.678Z,98716.14
2018-12-08T22:57:33.585Z,98716.14
2018-12-08T23:00:13.427Z,98716.14
2018-12-08T23:02:42.383Z,98716.14
2018-12-08T23:05:11.302Z,98716.14
2018-12-08T23:07:40.485Z,98716.14
2018-12-08T23:10:09.418Z,98716.14
2018-12-08T23:12:39.239Z,98716.14
2018-12-08T23:15:08.241Z,98716.14
2018-12-08T23:17:37.211Z,98716.14
2018-12-08T23:20:07.244Z,98716.14
2018-12-08T23:22:36.319Z,98716.14
2018-12-08T23:25:05.489Z,98716.14
2018-12-08T23:27:34.433Z,98716.14
2018-12-08T23:30:05.987Z,98716.14
2018-12-08T23:32:34.937Z,98716.14
2018-12-08T23:35:05.239Z,98716.14
2018-12-08T23:37:34.194Z,98716.14
2018-12-08T23:40:05.172Z,98716.14
2018-12-08T23:42:34.183Z,98716.14
2018-12-08T23:45:03.277Z,98716.14
2018-12-08T23:47:32.393Z,98716.14
2018-12-08T23:50:01.359Z,98716.14
2018-12-08T23:52:30.317Z,98716.14
2018-12-08T23:54:59.327Z,98716.14
2018-12-08T23:57:28.274Z,98716.14
2018-12-08T23:59:57.544Z,98716.14
